createdAt,value
2018-12-18T00:00:27.328Z,4.90
2018-12-18T00:03:16.040Z,4.90
2018-12-18T00:05:52.418Z,4.90
2018-12-18T00:08:36.687Z,5.00
2018-12-18T00:11:19.609Z,5.00
2018-12-18T00:14:04.487Z,5.00
2018-12-18T00:16:50.787Z,5.00
2018-12-18T00:19:35.349Z,5.00
2018-12-18T00:22:11.951Z,5.00
2018-12-18T00:24:53.059Z,5.00
2018-12-18T00:27:31.803Z,5.00
2018-12-18T00:30:18.962Z,5.00
2018-12-18T00:32:57.337Z,5.00
2018-12-18T00:35:34.202Z,5.00
2018-12-18T00:38:12.483Z,5.00
2018-12-18T00:40:57.592Z,5.00
2018-12-18T00:46:35.019Z,5.00
2018-12-18T00:49:15.250Z,5.00
2018-12-18T00:51:58.155Z,5.00
2018-12-18T00:57:38.317Z,5.00
2018-12-18T01:00:16.114Z,4.90
2018-12-18T01:03:00.595Z,4.90
2018-12-18T01:05:37.356Z,4.90
2018-12-18T01:08:13.386Z,4.90
2018-12-18T01:11:03.900Z,4.90
2018-12-18T01:13:42.361Z,4.90
2018-12-18T01:19:22.225Z,4.90
2018-12-18T01:22:00.096Z,4.80
2018-12-18T01:24:36.643Z,4.90
2018-12-18T01:27:23.664Z,4.80
2018-12-18T01:33:01.154Z,4.80
2018-12-18T01:35:37.555Z,4.80
2018-12-18T01:38:17.973Z,4.70
2018-12-18T01:40:59.051Z,4.70
2018-12-18T01:43:37.507Z,4.70
2018-12-18T01:46:13.757Z,4.70
2018-12-18T01:48:58.268Z,4.70
2018-12-18T01:51:32.613Z,4.70
2018-12-18T01:57:13.815Z,4.60
2018-12-18T01:59:54.350Z,4.60
2018-12-18T02:02:32.852Z,4.50
2018-12-18T02:05:14.500Z,4.50
2018-12-18T02:07:59.289Z,4.40
2018-12-18T02:10:39.609Z,4.40
2018-12-18T02:16:27.146Z,4.30
2018-12-18T02:21:44.496Z,4.10
2018-12-18T02:24:28.920Z,4.00
2018-12-18T02:27:03.639Z,4.00
2018-12-18T02:29:50.001Z,3.90
2018-12-18T02:32:34.575Z,3.90
2018-12-18T02:50:20.492Z,3.70
2018-12-18T02:52:57.054Z,3.60
2018-12-18T02:55:35.057Z,3.60
2018-12-18T02:58:12.045Z,3.50
2018-12-18T03:00:50.907Z,3.50
2018-12-18T03:03:36.093Z,3.50
2018-12-18T03:06:23.247Z,3.50
2018-12-18T03:09:07.866Z,3.50
2018-12-18T03:11:46.614Z,3.40
2018-12-18T03:14:35.177Z,3.40
2018-12-18T03:17:13.659Z,3.40
2018-12-18T03:19:51.745Z,3.30
2018-12-18T03:22:26.919Z,3.30
2018-12-18T03:25:03.373Z,3.30
2018-12-18T03:27:39.854Z,3.20
2018-12-18T03:30:28.399Z,3.20
2018-12-18T03:33:04.894Z,3.20
2018-12-18T03:35:49.380Z,3.10
2018-12-18T03:38:26.439Z,3.10
2018-12-18T03:41:11.589Z,3.10
2018-12-18T03:43:52.705Z,3.00
2018-12-18T03:46:31.367Z,3.00
2018-12-18T03:52:07.144Z,3.00
2018-12-18T03:54:43.815Z,2.90
2018-12-18T03:57:28.167Z,2.90
2018-12-18T04:00:08.923Z,2.90
2018-12-18T04:02:55.978Z,2.90
2018-12-18T04:05:40.854Z,2.80
2018-12-18T04:08:21.086Z,2.80
2018-12-18T04:10:59.105Z,2.80
2018-12-18T04:13:35.332Z,2.80
2018-12-18T04:22:17.581Z,2.70
2018-12-18T04:28:00.975Z,2.70
2018-12-18T04:30:47.846Z,2.70
2018-12-18T04:33:26.498Z,2.70
2018-12-18T04:36:04.581Z,2.70
2018-12-18T04:38:45.793Z,2.70
2018-12-18T04:41:24.257Z,2.70
2018-12-18T04:44:02.558Z,2.60
2018-12-18T04:46:37.629Z,2.70
2018-12-18T04:49:14.399Z,2.70
2018-12-18T05:01:02.463Z,2.60
2018-12-18T05:03:37.197Z,2.60
2018-12-18T05:09:14.781Z,2.60
2018-12-18T05:15:02.004Z,2.60
2018-12-18T05:17:40.482Z,2.50
2018-12-18T05:20:24.743Z,2.60
2018-12-18T05:23:05.261Z,2.50
2018-12-18T05:25:41.929Z,2.50
2018-12-18T05:28:18.845Z,2.40
2018-12-18T05:33:54.891Z,2.40
2018-12-18T05:36:43.822Z,2.30
2018-12-18T05:51:38.449Z,2.30
2018-12-18T05:57:20.776Z,2.30
2018-12-18T06:00:03.346Z,2.30
2018-12-18T06:11:42.412Z,2.30
2018-12-18T06:14:27.760Z,2.30
2018-12-18T06:17:08.712Z,2.30
2018-12-18T06:19:53.694Z,2.30
2018-12-18T06:22:38.591Z,2.20
2018-12-18T06:28:16.814Z,2.20
2018-12-18T06:30:52.994Z,2.30
2018-12-18T06:33:36.535Z,2.20
2018-12-18T06:36:15.065Z,2.30
2018-12-18T06:50:56.836Z,2.20
2018-12-18T06:59:43.043Z,2.20
2018-12-18T07:17:29.320Z,2.30
2018-12-18T07:26:03.306Z,2.30
2018-12-18T07:34:50.073Z,2.30
2018-12-18T07:43:37.682Z,2.30
2018-12-18T07:52:19.420Z,2.30
2018-12-18T08:04:06.582Z,2.30
2018-12-18T08:12:40.531Z,2.40
2018-12-18T08:15:16.903Z,2.40
2018-12-18T08:17:57.181Z,2.50
2018-12-18T08:23:29.861Z,2.60
2018-12-18T08:26:06.527Z,2.60
2018-12-18T08:28:42.738Z,2.70
2018-12-18T08:31:19.379Z,2.70
2018-12-18T08:33:58.270Z,2.80
2018-12-18T08:36:38.835Z,2.80
2018-12-18T08:39:17.458Z,2.80
2018-12-18T08:42:02.138Z,2.90
2018-12-18T08:44:40.416Z,2.90
2018-12-18T08:50:21.739Z,3.00
2018-12-18T08:53:02.633Z,3.00
2018-12-18T08:55:40.819Z,3.00
2018-12-18T09:01:11.454Z,3.10
2018-12-18T09:03:47.315Z,3.20
2018-12-18T09:06:25.446Z,3.20
2018-12-18T09:09:07.884Z,3.30
2018-12-18T09:11:44.833Z,3.40
2018-12-18T09:17:39.748Z,3.50
2018-12-18T09:20:15.696Z,3.50
2018-12-18T09:22:53.810Z,3.60
2018-12-18T09:25:31.743Z,3.70
2018-12-18T09:28:18.202Z,3.70
2018-12-18T09:30:50.390Z,3.80
2018-12-18T09:33:24.490Z,3.80
2018-12-18T09:35:59.280Z,3.90
2018-12-18T09:39:42.903Z,3.90
2018-12-18T09:42:24.543Z,4.00
2018-12-18T09:45:05.634Z,4.00
2018-12-18T09:50:36.755Z,4.10
2018-12-18T09:53:17.292Z,4.10
2018-12-18T09:55:53.894Z,4.20
2018-12-18T09:58:30.678Z,4.30
2018-12-18T10:01:08.869Z,4.30
2018-12-18T10:03:47.038Z,4.40
2018-12-18T10:06:25.167Z,4.50
2018-12-18T10:09:09.791Z,4.50
2018-12-18T10:11:50.563Z,4.60
2018-12-18T10:14:28.850Z,4.60
2018-12-18T10:17:06.783Z,4.70
2018-12-18T10:19:47.310Z,4.80
2018-12-18T10:22:23.853Z,4.80
2018-12-18T10:24:59.763Z,4.90
2018-12-18T10:27:38.692Z,4.90
2018-12-18T10:30:15.521Z,5.00
2018-12-18T10:32:52.118Z,5.00
2018-12-18T10:38:19.817Z,5.10
2018-12-18T10:41:00.417Z,5.20
2018-12-18T10:43:36.605Z,5.20
2018-12-18T10:46:16.828Z,5.30
2018-12-18T10:51:49.999Z,5.40
2018-12-18T10:54:26.208Z,5.40
2018-12-18T10:57:04.270Z,5.40
2018-12-18T11:02:36.269Z,5.50
2018-12-18T11:05:13.679Z,5.50
2018-12-18T11:07:50.548Z,5.60
2018-12-18T11:13:21.103Z,5.60
2018-12-18T11:15:57.139Z,5.70
2018-12-18T11:18:37.944Z,5.70
2018-12-18T11:21:13.974Z,5.70
2018-12-18T11:23:51.826Z,5.70
2018-12-18T11:26:32.323Z,5.70
2018-12-18T11:32:05.702Z,5.80
2018-12-18T11:37:45.088Z,5.80
2018-12-18T11:40:23.455Z,5.90
2018-12-18T11:43:02.305Z,5.90
2018-12-18T11:45:38.550Z,6.00
2018-12-18T11:51:07.118Z,6.00
2018-12-18T11:53:47.523Z,6.00
2018-12-18T11:56:28.543Z,6.10
2018-12-18T11:59:04.682Z,6.10
2018-12-18T12:01:40.797Z,6.10
2018-12-18T12:04:28.614Z,6.10
2018-12-18T12:07:06.582Z,6.20
2018-12-18T12:09:43.401Z,6.20
2018-12-18T12:12:19.527Z,6.20
2018-12-18T12:14:55.826Z,6.20
2018-12-18T12:17:34.825Z,6.20
2018-12-18T12:20:12.887Z,6.30
2018-12-18T12:22:50.754Z,6.30
2018-12-18T12:25:28.698Z,6.30
2018-12-18T12:28:09.013Z,6.30
2018-12-18T12:30:45.197Z,6.30
2018-12-18T12:33:22.015Z,6.40
2018-12-18T12:35:59.926Z,6.30
2018-12-18T12:41:28.811Z,6.40
2018-12-18T12:44:05.819Z,6.40
2018-12-18T12:46:42.434Z,6.40
2018-12-18T12:49:26.934Z,6.40
2018-12-18T12:52:03.589Z,6.40
2018-12-18T12:54:39.869Z,6.40
2018-12-18T12:57:20.095Z,6.40
2018-12-18T12:59:56.785Z,6.40
2018-12-18T13:02:34.860Z,6.40
2018-12-18T13:05:11.653Z,6.40
2018-12-18T13:13:00.582Z,6.40
2018-12-18T13:15:37.491Z,6.40
2018-12-18T13:18:15.427Z,6.40
2018-12-18T13:20:53.436Z,6.40
2018-12-18T13:26:24.922Z,6.30
2018-12-18T13:29:01.554Z,6.20
2018-12-18T13:31:37.642Z,6.20
2018-12-18T13:37:13.630Z,6.10
2018-12-18T13:39:50.158Z,6.00
2018-12-18T13:42:27.047Z,5.90
2018-12-18T13:45:05.463Z,5.90
2018-12-18T13:47:44.183Z,5.80
2018-12-18T13:50:25.072Z,5.70
2018-12-18T13:53:01.281Z,5.70
2018-12-18T13:58:30.706Z,5.50
2018-12-18T14:01:06.815Z,5.50
2018-12-18T14:03:49.317Z,5.40
2018-12-18T14:06:23.770Z,5.40
2018-12-18T14:11:57.055Z,5.40
2018-12-18T14:14:37.941Z,5.30
2018-12-18T14:17:14.343Z,5.30
2018-12-18T14:22:51.271Z,5.30
2018-12-18T14:25:26.478Z,5.20
2018-12-18T14:28:03.390Z,5.20
2018-12-18T14:33:32.581Z,5.20
2018-12-18T14:36:11.398Z,5.10
2018-12-18T14:38:50.118Z,5.10
2018-12-18T14:41:28.218Z,5.10
2018-12-18T14:46:59.897Z,5.00
2018-12-18T14:49:46.487Z,5.00
2018-12-18T14:52:40.636Z,5.00
2018-12-18T14:58:25.812Z,4.90
2018-12-18T15:04:04.346Z,4.80
2018-12-18T15:06:42.530Z,4.80
2018-12-18T15:12:13.347Z,4.70
2018-12-18T15:17:46.042Z,4.70
2018-12-18T15:20:22.061Z,4.70
2018-12-18T15:23:00.309Z,4.60
2018-12-18T15:25:41.502Z,4.60
2018-12-18T15:31:12.950Z,4.50
2018-12-18T15:33:52.271Z,4.50
2018-12-18T15:36:28.593Z,4.50
2018-12-18T15:41:57.311Z,4.40
2018-12-18T15:44:33.626Z,4.40
2018-12-18T15:47:11.475Z,4.40
2018-12-18T15:52:39.078Z,4.30
2018-12-18T15:55:19.602Z,4.30
2018-12-18T15:57:58.108Z,4.30
2018-12-18T16:00:34.714Z,4.30
2018-12-18T16:06:02.450Z,4.20
2018-12-18T16:08:42.763Z,4.20
2018-12-18T16:11:19.017Z,4.20
2018-12-18T16:13:57.248Z,4.20
2018-12-18T16:19:39.295Z,4.10
2018-12-18T16:25:13.749Z,4.10
2018-12-18T16:30:44.359Z,4.10
2018-12-18T16:36:13.262Z,4.00
2018-12-18T16:38:49.684Z,3.90
2018-12-18T16:44:18.910Z,3.90
2018-12-18T16:46:55.907Z,3.90
2018-12-18T16:49:33.768Z,3.80
2018-12-18T16:54:59.664Z,3.80
2018-12-18T16:57:38.914Z,3.70
2018-12-18T17:00:20.968Z,3.80
2018-12-18T17:02:57.479Z,3.70
2018-12-18T17:05:35.456Z,3.70
2018-12-18T17:11:03.362Z,3.70
2018-12-18T17:13:39.370Z,3.70
2018-12-18T17:16:17.471Z,3.70
2018-12-18T17:18:57.327Z,3.70
2018-12-18T17:21:35.474Z,3.70
2018-12-18T17:24:11.794Z,3.70
2018-12-18T17:26:48.559Z,3.70
2018-12-18T17:32:19.508Z,3.70
2018-12-18T17:34:54.575Z,3.70
2018-12-18T17:37:36.285Z,3.70
2018-12-18T17:40:12.635Z,3.70
2018-12-18T17:42:49.656Z,3.70
2018-12-18T17:45:32.926Z,3.70
2018-12-18T17:48:11.514Z,3.60
2018-12-18T17:50:49.481Z,3.60
2018-12-18T17:53:26.281Z,3.70
2018-12-18T17:56:02.411Z,3.60
2018-12-18T17:58:42.778Z,3.60
2018-12-18T18:04:12.257Z,3.60
2018-12-18T18:06:58.283Z,3.60
2018-12-18T18:09:36.914Z,3.60
2018-12-18T18:12:15.015Z,3.60
2018-12-18T18:14:55.450Z,3.60
2018-12-18T18:17:30.038Z,3.60
2018-12-18T18:20:06.395Z,3.60
2018-12-18T18:22:45.007Z,3.50
2018-12-18T18:25:23.337Z,3.50
2018-12-18T18:28:00.255Z,3.50
2018-12-18T18:30:35.553Z,3.50
2018-12-18T18:33:14.305Z,3.50
2018-12-18T18:35:51.235Z,3.50
2018-12-18T18:38:31.933Z,3.60
2018-12-18T18:41:10.311Z,3.60
2018-12-18T18:43:48.367Z,3.60
2018-12-18T18:46:24.608Z,3.50
2018-12-18T18:49:02.625Z,3.50
2018-12-18T18:51:39.367Z,3.50
2018-12-18T18:54:17.595Z,3.50
2018-12-18T18:56:55.527Z,3.50
2018-12-18T18:59:40.637Z,3.50
2018-12-18T19:02:21.671Z,3.50
2018-12-18T19:04:58.182Z,3.50
2018-12-18T19:10:27.632Z,3.50
2018-12-18T19:13:04.650Z,3.50
2018-12-18T19:15:41.470Z,3.50
2018-12-18T19:18:17.605Z,3.50
2018-12-18T19:20:55.599Z,3.50
2018-12-18T19:23:33.637Z,3.50
2018-12-18T19:26:12.616Z,3.50
2018-12-18T19:28:53.610Z,3.50
2018-12-18T19:31:31.628Z,3.50
2018-12-18T19:34:20.718Z,3.50
2018-12-18T19:36:58.920Z,3.50
2018-12-18T19:39:35.644Z,3.50
2018-12-18T19:42:14.812Z,3.50
2018-12-18T19:44:52.939Z,3.50
2018-12-18T19:47:31.439Z,3.50
2018-12-18T19:50:11.920Z,3.50
2018-12-18T19:52:48.002Z,3.50
2018-12-18T19:55:25.891Z,3.50
2018-12-18T19:58:03.759Z,3.50
2018-12-18T20:00:38.826Z,3.50
2018-12-18T20:03:15.511Z,3.50
2018-12-18T20:05:56.007Z,3.50
2018-12-18T20:08:32.558Z,3.50
2018-12-18T20:11:10.525Z,3.50
2018-12-18T20:13:50.839Z,3.50
2018-12-18T20:16:27.668Z,3.50
2018-12-18T20:19:08.023Z,3.50
2018-12-18T20:21:48.890Z,3.50
2018-12-18T20:24:27.683Z,3.50
2018-12-18T20:29:58.909Z,3.50
2018-12-18T20:32:35.730Z,3.50
2018-12-18T20:35:13.896Z,3.60
2018-12-18T20:37:51.735Z,3.60
2018-12-18T20:40:29.735Z,3.50
2018-12-18T20:43:06.532Z,3.60
2018-12-18T20:45:45.393Z,3.60
2018-12-18T20:48:25.783Z,3.60
2018-12-18T20:51:04.414Z,3.60
2018-12-18T20:53:40.603Z,3.60
2018-12-18T20:59:10.031Z,3.60
2018-12-18T21:01:48.689Z,3.70
2018-12-18T21:04:29.141Z,3.70
2018-12-18T21:07:05.579Z,3.70
2018-12-18T21:09:43.781Z,3.70
2018-12-18T21:12:28.812Z,3.70
2018-12-18T21:18:03.379Z,3.70
2018-12-18T21:20:42.462Z,3.70
2018-12-18T21:23:21.343Z,3.70
2018-12-18T21:46:31.300Z,3.80
2018-12-18T21:49:09.396Z,3.80
2018-12-18T21:51:46.623Z,3.80
2018-12-18T21:54:27.413Z,3.80
2018-12-18T21:57:03.969Z,3.80
2018-12-18T21:59:42.171Z,3.90
2018-12-18T22:02:20.856Z,3.90
2018-12-18T22:04:56.983Z,3.90
2018-12-18T22:07:33.966Z,3.90
2018-12-18T22:10:10.565Z,3.90
2018-12-18T22:12:48.739Z,3.90
2018-12-18T22:18:17.198Z,4.00
2018-12-18T22:20:55.415Z,4.00
2018-12-18T22:23:31.650Z,4.00
2018-12-18T22:29:01.113Z,4.00
2018-12-18T22:31:39.118Z,4.00
2018-12-18T22:34:17.135Z,4.00
2018-12-18T22:36:56.532Z,4.00
2018-12-18T22:39:33.145Z,4.10
2018-12-18T22:42:12.083Z,4.10
2018-12-18T22:44:50.962Z,4.10
2018-12-18T22:47:27.732Z,4.10
2018-12-18T22:50:06.347Z,4.10
2018-12-18T22:52:47.247Z,4.10
2018-12-18T22:55:26.284Z,4.10
2018-12-18T22:58:03.131Z,4.10
2018-12-18T23:00:46.515Z,4.10
2018-12-18T23:03:22.808Z,4.10
2018-12-18T23:05:58.924Z,4.10
2018-12-18T23:08:41.357Z,4.10
2018-12-18T23:11:18.217Z,4.10
2018-12-18T23:13:56.910Z,4.10
2018-12-18T23:16:35.023Z,4.10
2018-12-18T23:19:12.990Z,4.10
2018-12-18T23:21:51.097Z,4.10
2018-12-18T23:24:27.892Z,4.10
2018-12-18T23:27:05.827Z,4.10
2018-12-18T23:29:41.052Z,4.10
2018-12-18T23:32:17.492Z,4.10
2018-12-18T23:34:53.922Z,4.10
2018-12-18T23:37:34.476Z,4.10
2018-12-18T23:40:08.982Z,4.10
2018-12-18T23:42:47.093Z,4.10
2018-12-18T23:45:23.084Z,4.10
2018-12-18T23:48:01.097Z,4.10
2018-12-18T23:50:37.731Z,4.10
2018-12-18T23:53:15.943Z,4.10
2018-12-18T23:55:54.725Z,4.10
2018-12-18T23:58:32.782Z,4.10
